sensor_id;sensor_type;location;lat;lon;timestamp;P1;durP1;ratioP1;P2;durP2;ratioP2
47860;SDS011;33620;52.340;5.984;2022-10-15T00:01:36;39.90;;;23.63;;
47860;SDS011;33620;52.340;5.984;2022-10-15T00:04:02;50.72;;;26.75;;
47860;SDS011;33620;52.340;5.984;2022-10-15T00:06:27;38.40;;;23.15;;
47860;SDS011;33620;52.340;5.984;2022-10-15T00:08:53;43.50;;;24.73;;
47860;SDS011;33620;52.340;5.984;2022-10-15T00:11:21;43.95;;;24.83;;
47860;SDS011;33620;52.340;5.984;2022-10-15T00:13:48;42.45;;;24.10;;
47860;SDS011;33620;52.340;5.984;2022-10-15T00:16:17;37.63;;;22.35;;
47860;SDS011;33620;52.340;5.984;2022-10-15T00:18:44;39.60;;;23.45;;
47860;SDS011;33620;52.340;5.984;2022-10-15T00:21:11;44.40;;;25.45;;
47860;SDS011;33620;52.340;5.984;2022-10-15T00:23:39;37.83;;;23.65;;
47860;SDS011;33620;52.340;5.984;2022-10-15T00:26:05;49.83;;;28.33;;
47860;SDS011;33620;52.340;5.984;2022-10-15T00:28:38;48.50;;;27.25;;
47860;SDS011;33620;52.340;5.984;2022-10-15T00:31:05;45.72;;;25.45;;
47860;SDS011;33620;52.340;5.984;2022-10-15T00:33:33;36.45;;;21.35;;
47860;SDS011;33620;52.340;5.984;2022-10-15T00:36:33;42.00;;;25.02;;
47860;SDS011;33620;52.340;5.984;2022-10-15T00:38:52;39.35;;;21.77;;
47860;SDS011;33620;52.340;5.984;2022-10-15T00:41:20;36.63;;;22.13;;
47860;SDS011;33620;52.340;5.984;2022-10-15T00:43:53;37.03;;;21.80;;
47860;SDS011;33620;52.340;5.984;2022-10-15T00:46:24;37.70;;;23.50;;
47860;SDS011;33620;52.340;5.984;2022-10-15T00:48:57;40.13;;;23.13;;
47860;SDS011;33620;52.340;5.984;2022-10-15T00:51:29;38.90;;;22.40;;
47860;SDS011;33620;52.340;5.984;2022-10-15T00:53:57;43.33;;;23.42;;
47860;SDS011;33620;52.340;5.984;2022-10-15T00:56:23;42.55;;;25.42;;
47860;SDS011;33620;52.340;5.984;2022-10-15T00:58:51;38.05;;;23.25;;
47860;SDS011;33620;52.340;5.984;2022-10-15T01:01:18;39.97;;;22.63;;
47860;SDS011;33620;52.340;5.984;2022-10-15T01:03:43;43.83;;;24.85;;
47860;SDS011;33620;52.340;5.984;2022-10-15T01:06:09;40.80;;;22.27;;
47860;SDS011;33620;52.340;5.984;2022-10-15T01:08:34;46.60;;;26.50;;
47860;SDS011;33620;52.340;5.984;2022-10-15T01:18:43;42.17;;;24.40;;
47860;SDS011;33620;52.340;5.984;2022-10-15T01:21:17;44.10;;;25.13;;
47860;SDS011;33620;52.340;5.984;2022-10-15T01:30:16;50.60;;;28.23;;
47860;SDS011;33620;52.340;5.984;2022-10-15T01:33:01;49.38;;;29.13;;
47860;SDS011;33620;52.340;5.984;2022-10-15T01:40:57;50.13;;;28.67;;
47860;SDS011;33620;52.340;5.984;2022-10-15T01:43:45;43.65;;;24.77;;
47860;SDS011;33620;52.340;5.984;2022-10-15T01:49:05;52.75;;;29.02;;
47860;SDS011;33620;52.340;5.984;2022-10-15T01:51:33;50.03;;;29.27;;
47860;SDS011;33620;52.340;5.984;2022-10-15T01:54:01;59.08;;;33.20;;
47860;SDS011;33620;52.340;5.984;2022-10-15T01:56:31;48.47;;;28.63;;
47860;SDS011;33620;52.340;5.984;2022-10-15T01:58:58;54.60;;;31.35;;
47860;SDS011;33620;52.340;5.984;2022-10-15T02:01:24;51.58;;;29.27;;
47860;SDS011;33620;52.340;5.984;2022-10-15T02:03:51;53.17;;;30.98;;
47860;SDS011;33620;52.340;5.984;2022-10-15T02:06:38;54.55;;;31.23;;
47860;SDS011;33620;52.340;5.984;2022-10-15T02:09:22;85.43;;;40.88;;
47860;SDS011;33620;52.340;5.984;2022-10-15T02:12:02;71.18;;;36.63;;
47860;SDS011;33620;52.340;5.984;2022-10-15T02:17:09;50.72;;;31.20;;
47860;SDS011;33620;52.340;5.984;2022-10-15T02:19:38;62.15;;;33.20;;
47860;SDS011;33620;52.340;5.984;2022-10-15T02:24:50;62.53;;;33.95;;
47860;SDS011;33620;52.340;5.984;2022-10-15T02:27:20;61.72;;;34.58;;
47860;SDS011;33620;52.340;5.984;2022-10-15T02:29:46;73.30;;;37.50;;
47860;SDS011;33620;52.340;5.984;2022-10-15T02:32:16;54.90;;;32.08;;
47860;SDS011;33620;52.340;5.984;2022-10-15T02:34:44;58.50;;;33.00;;
47860;SDS011;33620;52.340;5.984;2022-10-15T02:37:11;57.17;;;32.25;;
47860;SDS011;33620;52.340;5.984;2022-10-15T02:39:37;59.50;;;32.97;;
47860;SDS011;33620;52.340;5.984;2022-10-15T02:42:02;49.35;;;29.67;;
47860;SDS011;33620;52.340;5.984;2022-10-15T02:44:28;58.83;;;33.92;;
47860;SDS011;33620;52.340;5.984;2022-10-15T02:46:54;65.97;;;34.53;;
47860;SDS011;33620;52.340;5.984;2022-10-15T02:49:21;56.28;;;32.25;;
47860;SDS011;33620;52.340;5.984;2022-10-15T02:51:47;55.30;;;31.27;;
47860;SDS011;33620;52.340;5.984;2022-10-15T02:54:12;54.78;;;31.25;;
47860;SDS011;33620;52.340;5.984;2022-10-15T02:56:37;58.58;;;32.42;;
47860;SDS011;33620;52.340;5.984;2022-10-15T02:59:04;57.10;;;32.67;;
47860;SDS011;33620;52.340;5.984;2022-10-15T03:01:30;67.78;;;36.40;;
47860;SDS011;33620;52.340;5.984;2022-10-15T03:03:56;57.22;;;31.98;;
47860;SDS011;33620;52.340;5.984;2022-10-15T03:06:21;55.08;;;31.65;;
47860;SDS011;33620;52.340;5.984;2022-10-15T03:08:47;62.53;;;35.28;;
47860;SDS011;33620;52.340;5.984;2022-10-15T03:11:12;63.03;;;35.00;;
47860;SDS011;33620;52.340;5.984;2022-10-15T03:13:38;66.28;;;36.03;;
47860;SDS011;33620;52.340;5.984;2022-10-15T03:16:05;58.53;;;33.92;;
47860;SDS011;33620;52.340;5.984;2022-10-15T03:18:34;79.28;;;42.10;;
47860;SDS011;33620;52.340;5.984;2022-10-15T03:21:00;68.47;;;36.92;;
47860;SDS011;33620;52.340;5.984;2022-10-15T03:23:26;62.15;;;35.63;;
47860;SDS011;33620;52.340;5.984;2022-10-15T03:25:52;67.00;;;36.60;;
47860;SDS011;33620;52.340;5.984;2022-10-15T03:28:18;81.70;;;41.13;;
47860;SDS011;33620;52.340;5.984;2022-10-15T03:30:44;75.00;;;39.58;;
47860;SDS011;33620;52.340;5.984;2022-10-15T03:33:09;63.22;;;35.78;;
47860;SDS011;33620;52.340;5.984;2022-10-15T03:35:35;60.92;;;33.85;;
47860;SDS011;33620;52.340;5.984;2022-10-15T03:38:00;58.17;;;34.28;;
47860;SDS011;33620;52.340;5.984;2022-10-15T03:40:26;65.88;;;35.40;;
47860;SDS011;33620;52.340;5.984;2022-10-15T03:42:51;73.57;;;37.63;;
47860;SDS011;33620;52.340;5.984;2022-10-15T03:45:17;63.92;;;35.53;;
47860;SDS011;33620;52.340;5.984;2022-10-15T03:47:43;68.28;;;36.53;;
47860;SDS011;33620;52.340;5.984;2022-10-15T03:50:08;67.03;;;35.92;;
47860;SDS011;33620;52.340;5.984;2022-10-15T03:52:35;64.68;;;35.58;;
47860;SDS011;33620;52.340;5.984;2022-10-15T03:55:01;61.70;;;34.58;;
47860;SDS011;33620;52.340;5.984;2022-10-15T03:57:26;70.13;;;35.45;;
47860;SDS011;33620;52.340;5.984;2022-10-15T03:59:51;75.63;;;38.28;;
47860;SDS011;33620;52.340;5.984;2022-10-15T04:02:17;68.65;;;35.75;;
47860;SDS011;33620;52.340;5.984;2022-10-15T04:04:42;65.47;;;35.33;;
47860;SDS011;33620;52.340;5.984;2022-10-15T04:07:08;68.40;;;35.47;;
47860;SDS011;33620;52.340;5.984;2022-10-15T04:09:33;66.72;;;35.70;;
47860;SDS011;33620;52.340;5.984;2022-10-15T04:11:59;70.18;;;35.75;;
47860;SDS011;33620;52.340;5.984;2022-10-15T04:14:24;63.33;;;33.17;;
47860;SDS011;33620;52.340;5.984;2022-10-15T04:16:49;64.63;;;36.35;;
47860;SDS011;33620;52.340;5.984;2022-10-15T04:19:15;57.08;;;33.72;;
47860;SDS011;33620;52.340;5.984;2022-10-15T04:21:40;58.83;;;32.50;;
47860;SDS011;33620;52.340;5.984;2022-10-15T04:24:05;61.45;;;33.75;;
47860;SDS011;33620;52.340;5.984;2022-10-15T04:26:31;60.17;;;32.25;;
47860;SDS011;33620;52.340;5.984;2022-10-15T04:28:57;59.90;;;34.40;;
47860;SDS011;33620;52.340;5.984;2022-10-15T04:31:22;56.13;;;32.88;;
47860;SDS011;33620;52.340;5.984;2022-10-15T04:33:47;56.33;;;31.02;;
47860;SDS011;33620;52.340;5.984;2022-10-15T04:36:13;54.33;;;31.80;;
47860;SDS011;33620;52.340;5.984;2022-10-15T04:38:39;67.13;;;36.33;;
47860;SDS011;33620;52.340;5.984;2022-10-15T04:41:05;62.55;;;34.35;;
47860;SDS011;33620;52.340;5.984;2022-10-15T04:43:32;60.35;;;34.10;;
47860;SDS011;33620;52.340;5.984;2022-10-15T04:45:59;59.25;;;31.40;;
47860;SDS011;33620;52.340;5.984;2022-10-15T04:48:26;54.80;;;31.25;;
47860;SDS011;33620;52.340;5.984;2022-10-15T04:50:52;77.65;;;37.95;;
47860;SDS011;33620;52.340;5.984;2022-10-15T04:53:18;65.03;;;34.63;;
47860;SDS011;33620;52.340;5.984;2022-10-15T04:55:43;74.03;;;37.47;;
47860;SDS011;33620;52.340;5.984;2022-10-15T04:58:09;62.35;;;33.08;;
47860;SDS011;33620;52.340;5.984;2022-10-15T05:00:34;64.18;;;34.35;;
47860;SDS011;33620;52.340;5.984;2022-10-15T05:03:00;55.78;;;30.17;;
47860;SDS011;33620;52.340;5.984;2022-10-15T05:05:26;58.67;;;31.85;;
47860;SDS011;33620;52.340;5.984;2022-10-15T05:07:51;52.75;;;29.35;;
47860;SDS011;33620;52.340;5.984;2022-10-15T05:10:17;58.08;;;32.50;;
47860;SDS011;33620;52.340;5.984;2022-10-15T05:12:42;58.95;;;31.55;;
47860;SDS011;33620;52.340;5.984;2022-10-15T05:15:07;55.38;;;30.10;;
47860;SDS011;33620;52.340;5.984;2022-10-15T05:17:33;53.42;;;29.63;;
47860;SDS011;33620;52.340;5.984;2022-10-15T05:19:59;68.97;;;35.65;;
47860;SDS011;33620;52.340;5.984;2022-10-15T05:22:24;81.20;;;38.95;;
47860;SDS011;33620;52.340;5.984;2022-10-15T05:24:49;62.92;;;33.55;;
47860;SDS011;33620;52.340;5.984;2022-10-15T05:27:15;57.13;;;31.88;;
47860;SDS011;33620;52.340;5.984;2022-10-15T05:29:40;60.22;;;34.03;;
47860;SDS011;33620;52.340;5.984;2022-10-15T05:32:05;71.35;;;34.67;;
47860;SDS011;33620;52.340;5.984;2022-10-15T05:34:31;58.88;;;31.50;;
47860;SDS011;33620;52.340;5.984;2022-10-15T05:36:57;63.83;;;35.22;;
47860;SDS011;33620;52.340;5.984;2022-10-15T05:39:23;65.68;;;35.40;;
47860;SDS011;33620;52.340;5.984;2022-10-15T05:41:48;68.85;;;36.72;;
47860;SDS011;33620;52.340;5.984;2022-10-15T05:44:13;61.55;;;33.50;;
47860;SDS011;33620;52.340;5.984;2022-10-15T05:46:39;70.80;;;36.22;;
47860;SDS011;33620;52.340;5.984;2022-10-15T05:49:04;66.28;;;35.00;;
47860;SDS011;33620;52.340;5.984;2022-10-15T05:51:30;65.20;;;35.97;;
47860;SDS011;33620;52.340;5.984;2022-10-15T05:53:56;63.90;;;35.35;;
47860;SDS011;33620;52.340;5.984;2022-10-15T05:56:22;64.40;;;34.17;;
47860;SDS011;33620;52.340;5.984;2022-10-15T05:58:48;63.13;;;33.70;;
47860;SDS011;33620;52.340;5.984;2022-10-15T06:01:14;81.85;;;38.70;;
47860;SDS011;33620;52.340;5.984;2022-10-15T06:03:40;60.20;;;35.13;;
47860;SDS011;33620;52.340;5.984;2022-10-15T06:06:12;64.50;;;36.88;;
47860;SDS011;33620;52.340;5.984;2022-10-15T06:08:43;68.32;;;38.38;;
47860;SDS011;33620;52.340;5.984;2022-10-15T06:11:08;59.85;;;34.15;;
47860;SDS011;33620;52.340;5.984;2022-10-15T06:13:34;77.72;;;39.95;;
47860;SDS011;33620;52.340;5.984;2022-10-15T06:16:02;75.25;;;39.38;;
47860;SDS011;33620;52.340;5.984;2022-10-15T06:18:27;81.72;;;41.67;;
47860;SDS011;33620;52.340;5.984;2022-10-15T06:20:53;83.13;;;40.47;;
47860;SDS011;33620;52.340;5.984;2022-10-15T06:23:18;108.10;;;49.20;;
47860;SDS011;33620;52.340;5.984;2022-10-15T06:25:44;86.13;;;44.03;;
47860;SDS011;33620;52.340;5.984;2022-10-15T06:28:10;99.00;;;45.35;;
47860;SDS011;33620;52.340;5.984;2022-10-15T06:30:35;74.65;;;39.55;;
47860;SDS011;33620;52.340;5.984;2022-10-15T06:33:01;112.45;;;47.40;;
47860;SDS011;33620;52.340;5.984;2022-10-15T06:35:27;85.18;;;42.25;;
47860;SDS011;33620;52.340;5.984;2022-10-15T06:38:01;127.07;;;49.80;;
47860;SDS011;33620;52.340;5.984;2022-10-15T06:40:28;77.97;;;40.90;;
47860;SDS011;33620;52.340;5.984;2022-10-15T06:42:54;98.95;;;46.50;;
47860;SDS011;33620;52.340;5.984;2022-10-15T06:45:19;71.70;;;40.53;;
47860;SDS011;33620;52.340;5.984;2022-10-15T06:47:45;91.72;;;45.25;;
47860;SDS011;33620;52.340;5.984;2022-10-15T06:50:10;117.60;;;50.95;;
47860;SDS011;33620;52.340;5.984;2022-10-15T06:52:36;93.10;;;45.35;;
47860;SDS011;33620;52.340;5.984;2022-10-15T06:55:01;80.28;;;41.83;;
47860;SDS011;33620;52.340;5.984;2022-10-15T06:57:28;90.18;;;44.22;;
47860;SDS011;33620;52.340;5.984;2022-10-15T06:59:53;122.55;;;49.80;;
47860;SDS011;33620;52.340;5.984;2022-10-15T07:02:19;243.85;;;66.18;;
47860;SDS011;33620;52.340;5.984;2022-10-15T07:04:44;92.35;;;47.67;;
47860;SDS011;33620;52.340;5.984;2022-10-15T07:07:10;79.32;;;42.85;;
47860;SDS011;33620;52.340;5.984;2022-10-15T07:09:36;80.65;;;43.20;;
47860;SDS011;33620;52.340;5.984;2022-10-15T07:12:02;82.28;;;44.45;;
47860;SDS011;33620;52.340;5.984;2022-10-15T07:14:28;105.68;;;50.45;;
47860;SDS011;33620;52.340;5.984;2022-10-15T07:16:53;222.55;;;69.53;;
47860;SDS011;33620;52.340;5.984;2022-10-15T07:19:18;95.13;;;47.28;;
47860;SDS011;33620;52.340;5.984;2022-10-15T07:21:44;124.00;;;51.47;;
47860;SDS011;33620;52.340;5.984;2022-10-15T07:24:09;92.60;;;46.83;;
47860;SDS011;33620;52.340;5.984;2022-10-15T07:26:35;93.50;;;44.80;;
47860;SDS011;33620;52.340;5.984;2022-10-15T07:29:01;104.20;;;48.22;;
47860;SDS011;33620;52.340;5.984;2022-10-15T07:31:27;99.05;;;43.25;;
47860;SDS011;33620;52.340;5.984;2022-10-15T07:33:52;122.05;;;51.40;;
47860;SDS011;33620;52.340;5.984;2022-10-15T07:36:18;109.60;;;48.92;;
47860;SDS011;33620;52.340;5.984;2022-10-15T07:38:44;82.03;;;40.17;;
47860;SDS011;33620;52.340;5.984;2022-10-15T07:41:10;79.57;;;40.58;;
47860;SDS011;33620;52.340;5.984;2022-10-15T07:43:35;108.22;;;47.83;;
47860;SDS011;33620;52.340;5.984;2022-10-15T07:46:01;99.20;;;43.63;;
47860;SDS011;33620;52.340;5.984;2022-10-15T07:48:27;84.93;;;43.70;;
47860;SDS011;33620;52.340;5.984;2022-10-15T07:50:53;114.80;;;46.92;;
47860;SDS011;33620;52.340;5.984;2022-10-15T07:53:26;85.85;;;39.80;;
47860;SDS011;33620;52.340;5.984;2022-10-15T07:55:52;75.85;;;37.25;;
47860;SDS011;33620;52.340;5.984;2022-10-15T07:58:18;70.60;;;34.50;;
47860;SDS011;33620;52.340;5.984;2022-10-15T08:00:44;91.30;;;40.65;;
47860;SDS011;33620;52.340;5.984;2022-10-15T08:03:10;67.93;;;34.33;;
47860;SDS011;33620;52.340;5.984;2022-10-15T08:05:35;65.88;;;34.05;;
47860;SDS011;33620;52.340;5.984;2022-10-15T08:08:00;96.85;;;40.70;;
47860;SDS011;33620;52.340;5.984;2022-10-15T08:10:26;63.30;;;32.97;;
47860;SDS011;33620;52.340;5.984;2022-10-15T08:12:52;68.68;;;34.90;;
47860;SDS011;33620;52.340;5.984;2022-10-15T08:15:17;60.28;;;31.27;;
47860;SDS011;33620;52.340;5.984;2022-10-15T08:17:43;66.90;;;32.50;;
47860;SDS011;33620;52.340;5.984;2022-10-15T08:20:08;68.00;;;31.33;;
47860;SDS011;33620;52.340;5.984;2022-10-15T08:22:34;90.03;;;38.67;;
47860;SDS011;33620;52.340;5.984;2022-10-15T08:25:00;56.45;;;29.08;;
47860;SDS011;33620;52.340;5.984;2022-10-15T08:27:25;57.50;;;29.98;;
47860;SDS011;33620;52.340;5.984;2022-10-15T08:29:51;60.17;;;29.83;;
47860;SDS011;33620;52.340;5.984;2022-10-15T08:32:16;69.93;;;32.25;;
47860;SDS011;33620;52.340;5.984;2022-10-15T08:34:41;53.53;;;27.67;;
47860;SDS011;33620;52.340;5.984;2022-10-15T08:37:07;80.53;;;36.08;;
47860;SDS011;33620;52.340;5.984;2022-10-15T08:39:32;61.55;;;30.17;;
47860;SDS011;33620;52.340;5.984;2022-10-15T08:41:59;76.45;;;34.40;;
47860;SDS011;33620;52.340;5.984;2022-10-15T08:44:37;55.05;;;28.60;;
47860;SDS011;33620;52.340;5.984;2022-10-15T08:47:09;58.47;;;30.10;;
47860;SDS011;33620;52.340;5.984;2022-10-15T08:49:47;59.72;;;30.42;;
47860;SDS011;33620;52.340;5.984;2022-10-15T08:52:17;48.85;;;25.52;;
47860;SDS011;33620;52.340;5.984;2022-10-15T08:54:48;53.00;;;26.55;;
47860;SDS011;33620;52.340;5.984;2022-10-15T09:00:10;59.88;;;27.63;;
47860;SDS011;33620;52.340;5.984;2022-10-15T09:09:18;52.03;;;26.42;;
47860;SDS011;33620;52.340;5.984;2022-10-15T09:14:10;62.30;;;29.42;;
47860;SDS011;33620;52.340;5.984;2022-10-15T09:16:39;53.65;;;27.25;;
47860;SDS011;33620;52.340;5.984;2022-10-15T09:19:12;66.47;;;31.10;;
47860;SDS011;33620;52.340;5.984;2022-10-15T09:21:46;52.80;;;26.60;;
47860;SDS011;33620;52.340;5.984;2022-10-15T09:24:16;54.75;;;27.13;;
47860;SDS011;33620;52.340;5.984;2022-10-15T09:26:59;54.65;;;25.73;;
47860;SDS011;33620;52.340;5.984;2022-10-15T09:32:03;49.58;;;24.88;;
47860;SDS011;33620;52.340;5.984;2022-10-15T09:35:00;57.53;;;27.15;;
47860;SDS011;33620;52.340;5.984;2022-10-15T09:37:50;47.47;;;24.20;;
47860;SDS011;33620;52.340;5.984;2022-10-15T09:40:35;46.15;;;23.98;;
47860;SDS011;33620;52.340;5.984;2022-10-15T09:43:25;45.93;;;24.53;;
47860;SDS011;33620;52.340;5.984;2022-10-15T09:45:56;41.87;;;22.10;;
47860;SDS011;33620;52.340;5.984;2022-10-15T09:48:21;53.30;;;25.73;;
47860;SDS011;33620;52.340;5.984;2022-10-15T09:50:55;39.78;;;20.55;;
47860;SDS011;33620;52.340;5.984;2022-10-15T09:53:30;48.33;;;24.63;;
47860;SDS011;33620;52.340;5.984;2022-10-15T09:56:10;45.58;;;23.73;;
47860;SDS011;33620;52.340;5.984;2022-10-15T10:01:20;38.85;;;21.70;;
47860;SDS011;33620;52.340;5.984;2022-10-15T10:06:51;39.13;;;21.98;;
47860;SDS011;33620;52.340;5.984;2022-10-15T10:09:22;30.63;;;17.60;;
47860;SDS011;33620;52.340;5.984;2022-10-15T10:11:50;33.88;;;18.65;;
47860;SDS011;33620;52.340;5.984;2022-10-15T10:14:27;30.67;;;17.40;;
47860;SDS011;33620;52.340;5.984;2022-10-15T10:17:29;31.08;;;17.00;;
47860;SDS011;33620;52.340;5.984;2022-10-15T10:20:09;38.22;;;18.85;;
47860;SDS011;33620;52.340;5.984;2022-10-15T10:22:43;32.83;;;17.00;;
47860;SDS011;33620;52.340;5.984;2022-10-15T10:25:22;36.85;;;20.52;;
47860;SDS011;33620;52.340;5.984;2022-10-15T10:27:50;32.75;;;18.55;;
47860;SDS011;33620;52.340;5.984;2022-10-15T10:30:20;35.30;;;19.60;;
47860;SDS011;33620;52.340;5.984;2022-10-15T10:32:45;34.72;;;18.88;;
47860;SDS011;33620;52.340;5.984;2022-10-15T10:35:15;32.53;;;17.58;;
47860;SDS011;33620;52.340;5.984;2022-10-15T10:37:45;36.30;;;19.60;;
47860;SDS011;33620;52.340;5.984;2022-10-15T10:40:21;30.65;;;16.40;;
47860;SDS011;33620;52.340;5.984;2022-10-15T10:45:57;30.30;;;15.85;;
47860;SDS011;33620;52.340;5.984;2022-10-15T10:48:42;32.50;;;15.65;;
47860;SDS011;33620;52.340;5.984;2022-10-15T10:51:13;28.02;;;14.48;;
47860;SDS011;33620;52.340;5.984;2022-10-15T10:54:07;31.48;;;16.42;;
47860;SDS011;33620;52.340;5.984;2022-10-15T10:56:39;28.45;;;15.20;;
47860;SDS011;33620;52.340;5.984;2022-10-15T10:59:26;30.15;;;16.60;;
47860;SDS011;33620;52.340;5.984;2022-10-15T11:01:54;30.45;;;16.25;;
47860;SDS011;33620;52.340;5.984;2022-10-15T11:12:37;33.00;;;17.77;;
47860;SDS011;33620;52.340;5.984;2022-10-15T11:29:39;33.28;;;17.10;;
47860;SDS011;33620;52.340;5.984;2022-10-15T11:37:20;34.45;;;16.85;;
47860;SDS011;33620;52.340;5.984;2022-10-15T11:42:32;37.95;;;18.23;;
47860;SDS011;33620;52.340;5.984;2022-10-15T11:47:58;32.72;;;16.58;;
47860;SDS011;33620;52.340;5.984;2022-10-15T11:50:44;26.33;;;12.98;;
47860;SDS011;33620;52.340;5.984;2022-10-15T11:58:21;33.13;;;15.55;;
47860;SDS011;33620;52.340;5.984;2022-10-15T12:01:26;34.60;;;17.20;;
47860;SDS011;33620;52.340;5.984;2022-10-15T12:04:02;36.97;;;15.93;;
47860;SDS011;33620;52.340;5.984;2022-10-15T12:06:41;29.02;;;14.00;;
47860;SDS011;33620;52.340;5.984;2022-10-15T12:09:13;29.88;;;14.90;;
47860;SDS011;33620;52.340;5.984;2022-10-15T12:11:46;27.73;;;14.55;;
47860;SDS011;33620;52.340;5.984;2022-10-15T12:14:16;35.13;;;15.93;;
47860;SDS011;33620;52.340;5.984;2022-10-15T12:20:19;25.65;;;12.05;;
47860;SDS011;33620;52.340;5.984;2022-10-15T12:25:38;26.98;;;13.30;;
47860;SDS011;33620;52.340;5.984;2022-10-15T12:30:37;32.70;;;14.63;;
47860;SDS011;33620;52.340;5.984;2022-10-15T12:36:23;29.73;;;12.60;;
47860;SDS011;33620;52.340;5.984;2022-10-15T12:38:57;23.33;;;10.90;;
47860;SDS011;33620;52.340;5.984;2022-10-15T12:41:33;28.13;;;12.85;;
47860;SDS011;33620;52.340;5.984;2022-10-15T12:44:04;27.35;;;12.90;;
47860;SDS011;33620;52.340;5.984;2022-10-15T12:46:51;24.73;;;12.10;;
47860;SDS011;33620;52.340;5.984;2022-10-15T12:51:54;24.88;;;13.13;;
47860;SDS011;33620;52.340;5.984;2022-10-15T12:54:31;21.25;;;10.30;;
47860;SDS011;33620;52.340;5.984;2022-10-15T12:57:13;31.40;;;13.75;;
47860;SDS011;33620;52.340;5.984;2022-10-15T13:02:57;21.55;;;9.52;;
47860;SDS011;33620;52.340;5.984;2022-10-15T13:05:39;22.38;;;11.40;;
47860;SDS011;33620;52.340;5.984;2022-10-15T13:08:10;23.73;;;11.20;;
47860;SDS011;33620;52.340;5.984;2022-10-15T13:10:47;25.50;;;12.05;;
47860;SDS011;33620;52.340;5.984;2022-10-15T13:13:17;22.38;;;9.80;;
47860;SDS011;33620;52.340;5.984;2022-10-15T13:15:50;23.45;;;10.82;;
47860;SDS011;33620;52.340;5.984;2022-10-15T13:18:32;21.73;;;9.75;;
47860;SDS011;33620;52.340;5.984;2022-10-15T13:20:58;17.48;;;8.32;;
47860;SDS011;33620;52.340;5.984;2022-10-15T13:23:25;16.63;;;7.43;;
47860;SDS011;33620;52.340;5.984;2022-10-15T13:28:37;15.25;;;7.47;;
47860;SDS011;33620;52.340;5.984;2022-10-15T13:31:06;21.58;;;9.32;;
47860;SDS011;33620;52.340;5.984;2022-10-15T13:33:42;18.85;;;8.90;;
47860;SDS011;33620;52.340;5.984;2022-10-15T13:36:16;17.58;;;7.40;;
47860;SDS011;33620;52.340;5.984;2022-10-15T13:38:55;16.20;;;8.55;;
47860;SDS011;33620;52.340;5.984;2022-10-15T13:41:27;17.90;;;8.40;;
47860;SDS011;33620;52.340;5.984;2022-10-15T13:43:54;16.73;;;8.18;;
47860;SDS011;33620;52.340;5.984;2022-10-15T13:46:23;18.30;;;8.73;;
47860;SDS011;33620;52.340;5.984;2022-10-15T13:48:54;20.08;;;9.45;;
47860;SDS011;33620;52.340;5.984;2022-10-15T13:51:30;17.35;;;8.48;;
47860;SDS011;33620;52.340;5.984;2022-10-15T13:54:05;19.85;;;9.18;;
47860;SDS011;33620;52.340;5.984;2022-10-15T13:56:34;16.42;;;8.35;;
47860;SDS011;33620;52.340;5.984;2022-10-15T13:58:59;17.38;;;9.00;;
47860;SDS011;33620;52.340;5.984;2022-10-15T14:01:26;19.50;;;9.50;;
47860;SDS011;33620;52.340;5.984;2022-10-15T14:03:54;17.17;;;8.45;;
47860;SDS011;33620;52.340;5.984;2022-10-15T14:06:23;17.38;;;8.38;;
47860;SDS011;33620;52.340;5.984;2022-10-15T14:08:59;16.67;;;9.00;;
47860;SDS011;33620;52.340;5.984;2022-10-15T14:11:35;13.63;;;7.28;;
47860;SDS011;33620;52.340;5.984;2022-10-15T14:14:03;14.63;;;7.70;;
47860;SDS011;33620;52.340;5.984;2022-10-15T14:18:58;14.20;;;7.40;;
47860;SDS011;33620;52.340;5.984;2022-10-15T14:21:34;14.63;;;8.20;;
47860;SDS011;33620;52.340;5.984;2022-10-15T14:24:02;14.10;;;7.78;;
47860;SDS011;33620;52.340;5.984;2022-10-15T14:26:33;18.63;;;8.88;;
47860;SDS011;33620;52.340;5.984;2022-10-15T14:28:59;15.82;;;8.13;;
47860;SDS011;33620;52.340;5.984;2022-10-15T14:31:36;17.83;;;8.27;;
47860;SDS011;33620;52.340;5.984;2022-10-15T14:34:03;14.65;;;8.68;;
47860;SDS011;33620;52.340;5.984;2022-10-15T14:36:30;15.55;;;8.27;;
47860;SDS011;33620;52.340;5.984;2022-10-15T14:41:57;18.27;;;9.45;;
47860;SDS011;33620;52.340;5.984;2022-10-15T14:44:25;15.60;;;8.57;;
47860;SDS011;33620;52.340;5.984;2022-10-15T14:47:04;16.63;;;9.30;;
47860;SDS011;33620;52.340;5.984;2022-10-15T14:49:30;16.02;;;8.68;;
47860;SDS011;33620;52.340;5.984;2022-10-15T14:52:05;17.65;;;9.13;;
47860;SDS011;33620;52.340;5.984;2022-10-15T14:54:37;17.15;;;9.70;;
47860;SDS011;33620;52.340;5.984;2022-10-15T14:57:10;16.60;;;8.90;;
47860;SDS011;33620;52.340;5.984;2022-10-15T14:59:41;18.40;;;9.30;;
47860;SDS011;33620;52.340;5.984;2022-10-15T15:02:09;15.13;;;7.93;;
47860;SDS011;33620;52.340;5.984;2022-10-15T15:04:40;17.75;;;9.43;;
47860;SDS011;33620;52.340;5.984;2022-10-15T15:07:18;17.52;;;9.57;;
47860;SDS011;33620;52.340;5.984;2022-10-15T15:09:48;16.95;;;8.68;;
47860;SDS011;33620;52.340;5.984;2022-10-15T15:12:16;17.85;;;9.75;;
47860;SDS011;33620;52.340;5.984;2022-10-15T15:14:44;16.75;;;9.18;;
47860;SDS011;33620;52.340;5.984;2022-10-15T15:17:14;17.70;;;9.60;;
47860;SDS011;33620;52.340;5.984;2022-10-15T15:19:44;15.20;;;8.73;;
47860;SDS011;33620;52.340;5.984;2022-10-15T15:22:10;16.60;;;9.25;;
47860;SDS011;33620;52.340;5.984;2022-10-15T15:24:39;17.58;;;8.77;;
47860;SDS011;33620;52.340;5.984;2022-10-15T15:27:05;16.73;;;9.02;;
47860;SDS011;33620;52.340;5.984;2022-10-15T15:29:30;15.82;;;8.43;;
47860;SDS011;33620;52.340;5.984;2022-10-15T15:31:55;14.15;;;7.90;;
47860;SDS011;33620;52.340;5.984;2022-10-15T15:34:21;14.70;;;7.43;;
47860;SDS011;33620;52.340;5.984;2022-10-15T15:36:47;15.32;;;7.93;;
47860;SDS011;33620;52.340;5.984;2022-10-15T15:39:13;14.05;;;7.82;;
47860;SDS011;33620;52.340;5.984;2022-10-15T15:41:39;13.60;;;7.70;;
47860;SDS011;33620;52.340;5.984;2022-10-15T15:44:05;15.52;;;7.63;;
47860;SDS011;33620;52.340;5.984;2022-10-15T15:46:31;13.07;;;7.35;;
47860;SDS011;33620;52.340;5.984;2022-10-15T15:48:57;15.02;;;8.15;;
47860;SDS011;33620;52.340;5.984;2022-10-15T15:51:26;13.98;;;7.07;;
47860;SDS011;33620;52.340;5.984;2022-10-15T15:53:54;11.05;;;6.13;;
47860;SDS011;33620;52.340;5.984;2022-10-15T15:56:20;10.05;;;6.07;;
47860;SDS011;33620;52.340;5.984;2022-10-15T15:58:46;9.68;;;5.43;;
47860;SDS011;33620;52.340;5.984;2022-10-15T16:01:14;11.88;;;5.85;;
47860;SDS011;33620;52.340;5.984;2022-10-15T16:03:40;10.70;;;5.55;;
47860;SDS011;33620;52.340;5.984;2022-10-15T16:06:06;11.85;;;6.07;;
47860;SDS011;33620;52.340;5.984;2022-10-15T16:08:32;11.20;;;5.57;;
47860;SDS011;33620;52.340;5.984;2022-10-15T16:11:00;12.38;;;5.93;;
47860;SDS011;33620;52.340;5.984;2022-10-15T16:13:27;9.10;;;5.10;;
47860;SDS011;33620;52.340;5.984;2022-10-15T16:15:53;10.23;;;5.30;;
47860;SDS011;33620;52.340;5.984;2022-10-15T16:18:18;8.43;;;4.90;;
47860;SDS011;33620;52.340;5.984;2022-10-15T16:20:44;11.75;;;6.25;;
47860;SDS011;33620;52.340;5.984;2022-10-15T16:23:10;11.10;;;5.85;;
47860;SDS011;33620;52.340;5.984;2022-10-15T16:25:35;14.13;;;6.50;;
47860;SDS011;33620;52.340;5.984;2022-10-15T16:28:01;12.10;;;6.47;;
47860;SDS011;33620;52.340;5.984;2022-10-15T16:30:26;13.60;;;6.30;;